createdAt,value
2022-10-18T07:38:49.946Z,79.29
2022-10-18T08:48:56.566Z,55.01
2022-10-18T08:50:20.039Z,54.61
2022-10-18T08:51:38.617Z,57.02
2022-10-18T08:52:59.463Z,58.27
2022-10-18T08:54:06.132Z,60.06
2022-10-18T09:14:18.330Z,49.89
2022-10-18T09:15:50.509Z,49.33
2022-10-18T09:16:54.886Z,48.17
2022-10-18T09:18:18.150Z,47.73
2022-10-18T09:19:44.401Z,45.00
2022-10-18T09:21:00.317Z,44.48
2022-10-18T09:22:33.422Z,42.98
2022-10-18T09:23:47.500Z,43.14
2022-10-18T09:25:03.722Z,44.36
2022-10-18T09:26:19.396Z,44.78
2022-10-18T09:27:28.662Z,44.55
2022-10-18T09:34:04.372Z,40.87
2022-10-18T09:35:18.897Z,40.38
2022-10-18T09:36:26.681Z,41.13
2022-10-18T09:37:32.356Z,41.32
2022-10-18T09:38:45.143Z,39.98
2022-10-18T09:39:49.730Z,40.19
2022-10-18T09:41:05.181Z,40.12
2022-10-18T09:42:28.577Z,39.98
2022-10-18T09:43:48.426Z,41.29
2022-10-18T09:45:28.055Z,41.27
2022-10-18T09:46:36.460Z,40.32
2022-10-18T09:48:26.987Z,40.31
2022-10-18T09:49:37.347Z,40.28
2022-10-18T09:50:48.442Z,39.29
2022-10-18T09:51:52.568Z,38.63
2022-10-18T09:53:12.398Z,38.73
2022-10-18T09:54:49.531Z,38.88
2022-10-18T09:56:00.601Z,38.42
2022-10-18T09:57:37.128Z,38.27
2022-10-18T09:58:44.505Z,38.94
2022-10-18T09:59:47.911Z,39.87
2022-10-18T10:00:51.432Z,38.75
2022-10-18T10:01:52.912Z,38.53
2022-10-18T10:02:54.818Z,37.95
2022-10-18T10:03:56.394Z,37.97
2022-10-18T10:04:57.891Z,39.26
2022-10-18T10:06:15.833Z,38.61
2022-10-18T10:07:20.694Z,37.77
2022-10-18T10:08:32.756Z,39.16
2022-10-18T10:10:01.921Z,38.81
2022-10-18T10:11:03.298Z,39.37
2022-10-18T10:12:05.246Z,40.51
2022-10-18T10:13:24.366Z,39.39
2022-10-18T10:14:30.408Z,39.22
2022-10-18T10:15:37.071Z,39.09
2022-10-18T10:17:06.869Z,40.41
2022-10-18T10:18:33.161Z,40.37
2022-10-18T10:19:59.054Z,39.95
2022-10-18T10:21:06.823Z,39.57
2022-10-18T10:22:14.186Z,40.56
2022-10-18T10:23:27.092Z,39.65
2022-10-18T10:24:43.965Z,39.83
2022-10-18T10:25:51.852Z,39.59
2022-10-18T10:27:00.462Z,40.65
2022-10-18T10:28:11.841Z,40.33
2022-10-18T10:29:47.497Z,40.01
2022-10-18T10:30:49.284Z,41.99
2022-10-18T10:32:04.365Z,41.79
2022-10-18T10:33:06.689Z,40.43
2022-10-18T10:34:14.160Z,40.15
2022-10-18T10:36:58.922Z,39.23
2022-10-18T10:38:00.856Z,41.06
2022-10-18T10:39:12.585Z,39.06
2022-10-18T10:40:45.752Z,39.46
2022-10-18T10:42:12.755Z,38.48
2022-10-18T10:43:38.921Z,38.14
2022-10-18T10:44:54.926Z,38.78
2022-10-18T10:46:03.769Z,37.83
2022-10-18T10:47:06.693Z,38.64
2022-10-18T10:48:15.134Z,39.04
2022-10-18T10:49:39.132Z,38.91
2022-10-18T10:51:11.489Z,39.13
2022-10-18T10:52:28.289Z,38.91
2022-10-18T10:53:38.454Z,38.89
2022-10-18T10:54:45.573Z,39.83
2022-10-18T10:55:56.189Z,40.19
2022-10-18T10:57:19.723Z,39.90
2022-10-18T11:04:04.279Z,39.67
2022-10-18T11:05:26.965Z,41.44
2022-10-18T11:06:45.355Z,40.43
2022-10-18T11:07:47.154Z,41.85
2022-10-18T11:08:51.989Z,40.88
2022-10-18T11:16:35.454Z,42.31
2022-10-18T11:17:39.680Z,43.69
2022-10-18T11:18:46.497Z,45.26
2022-10-18T11:20:11.764Z,44.17
2022-10-18T11:21:19.953Z,43.06
2022-10-18T11:22:25.790Z,44.30
2022-10-18T11:23:41.054Z,43.85
2022-10-18T11:24:42.785Z,43.44
2022-10-18T11:25:49.782Z,44.19
2022-10-18T11:27:06.388Z,45.11
2022-10-18T11:28:18.655Z,45.64
2022-10-18T11:29:33.440Z,46.05
2022-10-18T11:30:49.803Z,44.93
2022-10-18T11:32:30.779Z,44.86
2022-10-18T11:34:10.560Z,44.94
2022-10-18T11:35:22.549Z,45.76
2022-10-18T11:36:36.564Z,44.89
2022-10-18T11:37:41.344Z,45.84
2022-10-18T11:44:04.362Z,41.95
2022-10-18T11:45:27.647Z,42.71
2022-10-18T11:47:04.991Z,44.90
2022-10-18T11:48:40.349Z,46.05
2022-10-18T11:50:11.037Z,47.22
2022-10-18T11:51:34.295Z,48.19
2022-10-18T11:53:09.077Z,45.30
2022-10-18T11:54:25.891Z,45.12
2022-10-18T11:55:50.818Z,44.48
2022-10-18T11:57:19.195Z,44.93
2022-10-18T11:58:33.619Z,45.84
2022-10-18T12:00:03.536Z,45.17
2022-10-18T12:01:28.497Z,44.93
2022-10-18T12:02:57.981Z,44.56
2022-10-18T12:04:07.812Z,44.63
2022-10-18T12:05:24.031Z,43.86
2022-10-18T12:06:36.605Z,42.88
2022-10-18T12:07:50.496Z,42.85
2022-10-18T12:08:59.965Z,42.98
2022-10-18T12:10:07.431Z,44.08
2022-10-18T12:11:22.802Z,44.78
2022-10-18T12:12:27.223Z,44.51
2022-10-18T12:13:41.155Z,43.92
2022-10-18T12:14:49.155Z,44.78
2022-10-18T12:15:52.397Z,43.63
2022-10-18T12:17:20.193Z,44.49
2022-10-18T12:18:25.702Z,45.07
2022-10-18T12:19:29.295Z,45.23
2022-10-18T12:20:36.465Z,44.36
2022-10-18T12:21:39.115Z,43.66
2022-10-18T12:22:47.326Z,44.08
2022-10-18T12:23:53.878Z,43.08
2022-10-18T12:24:55.232Z,45.08
2022-10-18T12:26:02.397Z,45.07
2022-10-18T12:32:14.103Z,44.11
2022-10-18T12:33:28.363Z,44.15
2022-10-18T12:34:53.457Z,43.25
2022-10-18T12:36:13.289Z,44.51
2022-10-18T12:37:34.993Z,45.30
2022-10-18T12:44:03.972Z,46.83
2022-10-18T12:45:20.457Z,45.52
2022-10-18T12:46:22.376Z,45.89
2022-10-18T12:47:25.691Z,45.02
2022-10-18T12:48:35.302Z,44.88
2022-10-18T12:49:41.403Z,46.00
2022-10-18T12:50:45.398Z,44.93
2022-10-18T12:51:59.496Z,44.70
2022-10-18T12:53:26.529Z,44.42
2022-10-18T12:54:39.626Z,45.07
2022-10-18T12:56:50.831Z,43.51
2022-10-18T12:57:52.140Z,45.18
2022-10-18T12:59:16.014Z,44.75
2022-10-18T13:00:29.403Z,44.68
2022-10-18T13:01:50.820Z,45.63
2022-10-18T13:03:16.692Z,45.97
2022-10-18T13:04:33.645Z,45.25
2022-10-18T13:05:52.862Z,45.47
2022-10-18T13:06:59.216Z,44.84
2022-10-18T13:08:30.241Z,44.99
2022-10-18T13:09:36.050Z,44.40
2022-10-18T13:10:38.096Z,44.15
2022-10-18T13:11:40.344Z,44.46
2022-10-18T13:12:47.943Z,45.45
2022-10-18T13:32:11.290Z,49.81
2022-10-18T13:33:34.585Z,51.50
2022-10-18T13:34:38.953Z,51.47
2022-10-18T13:35:52.066Z,50.97
2022-10-18T13:37:02.147Z,49.56
2022-10-18T13:38:08.421Z,48.63
2022-10-18T13:39:20.350Z,49.59
2022-10-18T13:40:24.902Z,49.87
2022-10-18T13:41:35.533Z,49.59
2022-10-18T13:42:37.250Z,48.99
2022-10-18T13:43:57.012Z,49.08
2022-10-18T13:45:32.906Z,48.40
2022-10-18T13:46:34.303Z,48.17
2022-10-18T13:47:37.759Z,46.39
2022-10-18T13:48:39.082Z,46.56
2022-10-18T13:49:40.514Z,46.30
2022-10-18T13:50:44.273Z,47.68
2022-10-18T13:52:04.300Z,47.81
2022-10-18T13:53:40.798Z,47.26
2022-10-18T13:55:12.440Z,48.04
2022-10-18T13:56:41.785Z,49.47
2022-10-18T13:57:46.583Z,50.18
2022-10-18T13:58:53.805Z,52.08
2022-10-18T14:00:28.855Z,53.33
2022-10-18T14:01:42.486Z,53.57
2022-10-18T14:03:04.058Z,55.88
2022-10-18T14:04:11.796Z,56.39
2022-10-18T14:05:48.057Z,57.82
2022-10-18T14:06:51.867Z,56.84
2022-10-18T14:08:08.062Z,57.09
2022-10-18T14:09:49.905Z,57.21
2022-10-18T14:11:03.081Z,57.68
2022-10-18T14:12:17.016Z,57.75
2022-10-18T14:13:24.506Z,57.35
2022-10-18T14:14:29.890Z,57.80
2022-10-18T14:15:39.296Z,57.62
2022-10-18T14:16:49.965Z,57.62
2022-10-18T14:17:54.831Z,58.22
2022-10-18T14:19:17.561Z,56.82
2022-10-18T14:20:32.722Z,55.64
2022-10-18T14:21:40.396Z,56.02
2022-10-18T14:23:08.282Z,55.10
2022-10-18T14:24:22.304Z,55.12
2022-10-18T14:25:29.589Z,56.01
2022-10-18T14:26:32.928Z,57.74
2022-10-18T14:27:35.003Z,58.23
2022-10-18T14:28:58.477Z,59.78
2022-10-18T14:30:30.902Z,59.54
2022-10-18T14:31:33.042Z,58.48
2022-10-18T14:32:35.284Z,57.77
2022-10-18T14:33:38.150Z,58.76
2022-10-18T14:34:44.378Z,58.54
2022-10-18T14:36:18.300Z,59.55
2022-10-18T14:37:25.813Z,60.37
2022-10-18T14:44:04.835Z,61.17
2022-10-18T14:45:19.342Z,60.92
2022-10-18T14:46:27.196Z,60.00
2022-10-18T14:47:31.227Z,59.52
2022-10-18T14:48:32.882Z,59.36
2022-10-18T14:49:34.230Z,62.31
2022-10-18T14:56:03.587Z,58.55
2022-10-18T14:57:06.478Z,58.83
2022-10-18T14:58:16.044Z,59.23
2022-10-18T14:59:23.121Z,59.13
2022-10-18T15:00:47.776Z,59.69
2022-10-18T15:01:57.724Z,58.67
2022-10-18T15:02:59.205Z,58.27
2022-10-18T15:04:09.558Z,57.36
2022-10-18T15:05:16.842Z,57.47
2022-10-18T15:06:19.504Z,58.42
2022-10-18T15:07:20.961Z,59.47
2022-10-18T15:14:05.265Z,63.21
2022-10-18T15:15:14.125Z,63.11
2022-10-18T15:16:18.295Z,64.31
2022-10-18T15:17:28.799Z,64.92
2022-10-18T15:19:42.821Z,65.18
2022-10-18T15:20:44.222Z,65.59
2022-10-18T15:23:32.950Z,67.44
2022-10-18T15:24:35.801Z,67.67
2022-10-18T15:25:37.283Z,67.68
2022-10-18T15:26:44.808Z,67.87
2022-10-18T15:28:04.286Z,68.96
2022-10-18T15:29:06.935Z,68.45
2022-10-18T15:30:16.439Z,69.10
2022-10-18T15:31:28.594Z,69.37
2022-10-18T15:38:03.575Z,72.01
2022-10-18T15:39:23.787Z,71.78
2022-10-18T15:40:27.981Z,71.47
2022-10-18T15:41:50.168Z,71.46
2022-10-18T15:42:54.369Z,72.30
2022-10-18T15:50:44.181Z,69.30
2022-10-18T15:51:49.589Z,68.68
2022-10-18T15:52:50.954Z,68.17
2022-10-18T15:53:54.094Z,68.70
2022-10-18T15:54:56.421Z,68.82
2022-10-18T16:01:16.961Z,70.39
2022-10-18T16:02:19.362Z,71.04
2022-10-18T16:03:22.203Z,70.60
2022-10-18T16:04:29.410Z,71.17
2022-10-18T16:05:30.810Z,71.61
2022-10-18T16:06:35.224Z,71.71
2022-10-18T16:13:03.454Z,72.79
2022-10-18T16:14:04.844Z,73.15
2022-10-18T16:15:06.628Z,73.56
2022-10-18T16:16:18.652Z,73.65
2022-10-18T16:17:19.985Z,73.92
2022-10-18T16:18:22.327Z,74.20
2022-10-18T16:19:24.032Z,73.86
2022-10-18T16:20:26.732Z,73.88
2022-10-18T16:21:41.296Z,74.33
2022-10-18T16:22:43.018Z,74.09
2022-10-18T16:23:44.817Z,74.55
2022-10-18T16:24:46.144Z,74.78
2022-10-18T16:37:09.544Z,75.32
2022-10-18T16:38:32.818Z,75.92
2022-10-18T16:39:35.526Z,76.39
2022-10-18T16:40:40.370Z,76.35
2022-10-18T16:41:47.671Z,75.84
2022-10-18T16:42:49.149Z,75.80
